sensor_id;sensor_type;location;lat;lon;timestamp;P1;durP1;ratioP1;P2;durP2;ratioP2
59145;SDS011;44928;53.074;6.646;2023-04-03T00:01:10;5.40;;;0.90;;
59145;SDS011;44928;53.074;6.646;2023-04-03T00:03:36;2.50;;;0.57;;
59145;SDS011;44928;53.074;6.646;2023-04-03T00:06:02;4.38;;;0.90;;
59145;SDS011;44928;53.074;6.646;2023-04-03T00:08:30;6.57;;;1.00;;
59145;SDS011;44928;53.074;6.646;2023-04-03T00:10:57;3.85;;;0.90;;
59145;SDS011;44928;53.074;6.646;2023-04-03T00:13:23;3.13;;;0.98;;
59145;SDS011;44928;53.074;6.646;2023-04-03T00:15:50;4.32;;;0.82;;
59145;SDS011;44928;53.074;6.646;2023-04-03T00:18:16;4.05;;;1.20;;
59145;SDS011;44928;53.074;6.646;2023-04-03T00:20:42;3.33;;;0.77;;
59145;SDS011;44928;53.074;6.646;2023-04-03T00:23:08;2.90;;;0.90;;
59145;SDS011;44928;53.074;6.646;2023-04-03T00:25:34;4.13;;;0.95;;
59145;SDS011;44928;53.074;6.646;2023-04-03T00:28:00;2.75;;;0.80;;
59145;SDS011;44928;53.074;6.646;2023-04-03T00:30:26;5.75;;;1.00;;
59145;SDS011;44928;53.074;6.646;2023-04-03T00:32:52;3.45;;;0.80;;
59145;SDS011;44928;53.074;6.646;2023-04-03T00:35:19;2.38;;;0.70;;
59145;SDS011;44928;53.074;6.646;2023-04-03T00:37:46;3.70;;;0.80;;
59145;SDS011;44928;53.074;6.646;2023-04-03T00:40:14;4.85;;;1.10;;
59145;SDS011;44928;53.074;6.646;2023-04-03T00:42:41;4.45;;;1.10;;
59145;SDS011;44928;53.074;6.646;2023-04-03T00:47:37;5.25;;;1.00;;
59145;SDS011;44928;53.074;6.646;2023-04-03T00:50:04;3.78;;;0.90;;
59145;SDS011;44928;53.074;6.646;2023-04-03T00:52:31;4.93;;;0.90;;
59145;SDS011;44928;53.074;6.646;2023-04-03T00:54:59;5.22;;;1.52;;
59145;SDS011;44928;53.074;6.646;2023-04-03T00:57:29;7.25;;;1.20;;
59145;SDS011;44928;53.074;6.646;2023-04-03T01:00:00;4.75;;;1.00;;
59145;SDS011;44928;53.074;6.646;2023-04-03T01:02:32;5.30;;;1.10;;
59145;SDS011;44928;53.074;6.646;2023-04-03T01:04:58;3.63;;;0.90;;
59145;SDS011;44928;53.074;6.646;2023-04-03T01:07:26;6.82;;;1.05;;
59145;SDS011;44928;53.074;6.646;2023-04-03T01:09:58;4.07;;;0.90;;
59145;SDS011;44928;53.074;6.646;2023-04-03T01:12:28;4.43;;;1.20;;
59145;SDS011;44928;53.074;6.646;2023-04-03T01:14:57;3.78;;;1.05;;
59145;SDS011;44928;53.074;6.646;2023-04-03T01:25:48;5.65;;;1.35;;
59145;SDS011;44928;53.074;6.646;2023-04-03T01:28:18;4.95;;;1.10;;
59145;SDS011;44928;53.074;6.646;2023-04-03T01:33:30;4.13;;;1.20;;
59145;SDS011;44928;53.074;6.646;2023-04-03T01:35:56;5.80;;;1.42;;
59145;SDS011;44928;53.074;6.646;2023-04-03T01:38:22;5.82;;;1.10;;
59145;SDS011;44928;53.074;6.646;2023-04-03T01:40:48;6.85;;;1.20;;
59145;SDS011;44928;53.074;6.646;2023-04-03T01:43:14;3.78;;;1.00;;
59145;SDS011;44928;53.074;6.646;2023-04-03T01:45:40;4.93;;;1.17;;
59145;SDS011;44928;53.074;6.646;2023-04-03T01:48:06;8.27;;;1.50;;
59145;SDS011;44928;53.074;6.646;2023-04-03T01:50:31;6.63;;;1.40;;
59145;SDS011;44928;53.074;6.646;2023-04-03T01:52:57;6.50;;;1.25;;
59145;SDS011;44928;53.074;6.646;2023-04-03T01:55:23;5.35;;;1.35;;
59145;SDS011;44928;53.074;6.646;2023-04-03T01:57:49;4.93;;;1.30;;
59145;SDS011;44928;53.074;6.646;2023-04-03T02:00:15;4.47;;;1.10;;
59145;SDS011;44928;53.074;6.646;2023-04-03T02:02:41;6.25;;;1.30;;
59145;SDS011;44928;53.074;6.646;2023-04-03T02:05:07;5.60;;;1.30;;
59145;SDS011;44928;53.074;6.646;2023-04-03T02:07:33;5.45;;;1.20;;
59145;SDS011;44928;53.074;6.646;2023-04-03T02:09:59;5.82;;;1.42;;
59145;SDS011;44928;53.074;6.646;2023-04-03T02:12:25;6.18;;;1.35;;
59145;SDS011;44928;53.074;6.646;2023-04-03T02:14:51;5.72;;;1.20;;
59145;SDS011;44928;53.074;6.646;2023-04-03T02:17:17;5.18;;;1.20;;
59145;SDS011;44928;53.074;6.646;2023-04-03T02:19:42;9.10;;;1.60;;
59145;SDS011;44928;53.074;6.646;2023-04-03T02:22:08;4.32;;;0.95;;
59145;SDS011;44928;53.074;6.646;2023-04-03T02:24:34;5.88;;;1.38;;
59145;SDS011;44928;53.074;6.646;2023-04-03T02:27:00;5.22;;;1.20;;
59145;SDS011;44928;53.074;6.646;2023-04-03T02:29:25;4.32;;;1.30;;
59145;SDS011;44928;53.074;6.646;2023-04-03T02:31:51;7.68;;;1.40;;
59145;SDS011;44928;53.074;6.646;2023-04-03T02:34:17;6.75;;;1.50;;
59145;SDS011;44928;53.074;6.646;2023-04-03T02:36:43;6.40;;;1.20;;
59145;SDS011;44928;53.074;6.646;2023-04-03T02:39:10;6.55;;;1.92;;
59145;SDS011;44928;53.074;6.646;2023-04-03T02:41:36;3.97;;;1.00;;
59145;SDS011;44928;53.074;6.646;2023-04-03T02:44:02;6.43;;;1.30;;
59145;SDS011;44928;53.074;6.646;2023-04-03T02:46:29;8.07;;;1.52;;
59145;SDS011;44928;53.074;6.646;2023-04-03T02:48:55;4.70;;;1.45;;
59145;SDS011;44928;53.074;6.646;2023-04-03T02:51:21;4.80;;;1.23;;
59145;SDS011;44928;53.074;6.646;2023-04-03T02:53:48;7.45;;;1.90;;
59145;SDS011;44928;53.074;6.646;2023-04-03T02:56:14;6.90;;;1.58;;
59145;SDS011;44928;53.074;6.646;2023-04-03T02:58:40;9.15;;;1.65;;
59145;SDS011;44928;53.074;6.646;2023-04-03T03:01:06;5.93;;;1.50;;
59145;SDS011;44928;53.074;6.646;2023-04-03T03:03:32;5.88;;;1.77;;
59145;SDS011;44928;53.074;6.646;2023-04-03T03:06:04;7.50;;;1.80;;
59145;SDS011;44928;53.074;6.646;2023-04-03T03:08:33;4.13;;;1.25;;
59145;SDS011;44928;53.074;6.646;2023-04-03T03:10:59;6.85;;;1.65;;
59145;SDS011;44928;53.074;6.646;2023-04-03T03:13:25;6.82;;;1.42;;
59145;SDS011;44928;53.074;6.646;2023-04-03T03:15:51;5.93;;;1.60;;
59145;SDS011;44928;53.074;6.646;2023-04-03T03:18:16;5.90;;;1.40;;
59145;SDS011;44928;53.074;6.646;2023-04-03T03:20:42;5.88;;;1.70;;
59145;SDS011;44928;53.074;6.646;2023-04-03T03:23:08;6.85;;;1.65;;
59145;SDS011;44928;53.074;6.646;2023-04-03T03:25:40;5.22;;;1.42;;
59145;SDS011;44928;53.074;6.646;2023-04-03T03:28:06;5.68;;;1.55;;
59145;SDS011;44928;53.074;6.646;2023-04-03T03:30:33;7.57;;;1.50;;
59145;SDS011;44928;53.074;6.646;2023-04-03T03:32:59;5.93;;;1.50;;
59145;SDS011;44928;53.074;6.646;2023-04-03T03:35:25;6.80;;;1.63;;
59145;SDS011;44928;53.074;6.646;2023-04-03T03:37:51;5.40;;;1.23;;
59145;SDS011;44928;53.074;6.646;2023-04-03T03:40:16;8.95;;;1.98;;
59145;SDS011;44928;53.074;6.646;2023-04-03T03:42:42;9.93;;;1.58;;
59145;SDS011;44928;53.074;6.646;2023-04-03T03:45:08;7.07;;;1.50;;
59145;SDS011;44928;53.074;6.646;2023-04-03T03:47:35;5.13;;;1.42;;
59145;SDS011;44928;53.074;6.646;2023-04-03T03:50:01;6.80;;;1.40;;
59145;SDS011;44928;53.074;6.646;2023-04-03T03:52:27;7.72;;;1.50;;
59145;SDS011;44928;53.074;6.646;2023-04-03T03:54:53;5.88;;;1.65;;
59145;SDS011;44928;53.074;6.646;2023-04-03T03:57:19;7.70;;;1.73;;
59145;SDS011;44928;53.074;6.646;2023-04-03T03:59:44;6.75;;;1.63;;
59145;SDS011;44928;53.074;6.646;2023-04-03T04:02:10;5.25;;;1.52;;
59145;SDS011;44928;53.074;6.646;2023-04-03T04:04:36;7.00;;;1.55;;
59145;SDS011;44928;53.074;6.646;2023-04-03T04:07:02;9.50;;;2.00;;
59145;SDS011;44928;53.074;6.646;2023-04-03T04:09:29;5.82;;;1.30;;
59145;SDS011;44928;53.074;6.646;2023-04-03T04:11:55;7.15;;;1.70;;
59145;SDS011;44928;53.074;6.646;2023-04-03T04:14:20;6.55;;;1.67;;
59145;SDS011;44928;53.074;6.646;2023-04-03T04:16:46;7.13;;;1.85;;
59145;SDS011;44928;53.074;6.646;2023-04-03T04:19:13;7.32;;;1.70;;
59145;SDS011;44928;53.074;6.646;2023-04-03T04:21:39;8.15;;;2.00;;
59145;SDS011;44928;53.074;6.646;2023-04-03T04:24:07;5.85;;;1.63;;
59145;SDS011;44928;53.074;6.646;2023-04-03T04:26:33;6.90;;;1.73;;
59145;SDS011;44928;53.074;6.646;2023-04-03T04:28:59;7.38;;;1.60;;
59145;SDS011;44928;53.074;6.646;2023-04-03T04:31:25;8.85;;;1.90;;
59145;SDS011;44928;53.074;6.646;2023-04-03T04:33:52;7.97;;;2.35;;
59145;SDS011;44928;53.074;6.646;2023-04-03T04:36:18;7.57;;;1.92;;
59145;SDS011;44928;53.074;6.646;2023-04-03T04:38:44;5.65;;;1.63;;
59145;SDS011;44928;53.074;6.646;2023-04-03T04:41:10;7.25;;;1.95;;
59145;SDS011;44928;53.074;6.646;2023-04-03T04:43:35;8.35;;;2.30;;
59145;SDS011;44928;53.074;6.646;2023-04-03T04:46:02;7.25;;;2.35;;
59145;SDS011;44928;53.074;6.646;2023-04-03T04:48:30;11.02;;;2.17;;
59145;SDS011;44928;53.074;6.646;2023-04-03T04:50:55;8.63;;;1.77;;
59145;SDS011;44928;53.074;6.646;2023-04-03T04:53:21;6.30;;;1.83;;
59145;SDS011;44928;53.074;6.646;2023-04-03T04:55:47;6.93;;;1.77;;
59145;SDS011;44928;53.074;6.646;2023-04-03T04:58:13;6.78;;;2.00;;
59145;SDS011;44928;53.074;6.646;2023-04-03T05:00:39;6.25;;;1.70;;
59145;SDS011;44928;53.074;6.646;2023-04-03T05:03:05;8.18;;;2.22;;
59145;SDS011;44928;53.074;6.646;2023-04-03T05:05:31;6.10;;;1.45;;
59145;SDS011;44928;53.074;6.646;2023-04-03T05:07:57;6.38;;;2.00;;
59145;SDS011;44928;53.074;6.646;2023-04-03T05:10:22;7.65;;;1.77;;
59145;SDS011;44928;53.074;6.646;2023-04-03T05:12:48;7.88;;;2.10;;
59145;SDS011;44928;53.074;6.646;2023-04-03T05:15:14;7.55;;;1.90;;
59145;SDS011;44928;53.074;6.646;2023-04-03T05:17:40;5.93;;;2.05;;
59145;SDS011;44928;53.074;6.646;2023-04-03T05:20:06;7.70;;;1.95;;
59145;SDS011;44928;53.074;6.646;2023-04-03T05:22:32;6.70;;;1.70;;
59145;SDS011;44928;53.074;6.646;2023-04-03T05:24:58;8.02;;;1.88;;
59145;SDS011;44928;53.074;6.646;2023-04-03T05:27:24;9.95;;;2.20;;
59145;SDS011;44928;53.074;6.646;2023-04-03T05:29:50;6.38;;;1.75;;
59145;SDS011;44928;53.074;6.646;2023-04-03T05:32:17;6.97;;;1.90;;
59145;SDS011;44928;53.074;6.646;2023-04-03T05:34:43;8.55;;;2.50;;
59145;SDS011;44928;53.074;6.646;2023-04-03T05:37:10;8.20;;;2.33;;
59145;SDS011;44928;53.074;6.646;2023-04-03T05:39:35;8.52;;;2.20;;
59145;SDS011;44928;53.074;6.646;2023-04-03T05:42:03;9.57;;;2.38;;
59145;SDS011;44928;53.074;6.646;2023-04-03T05:44:29;11.18;;;2.42;;
59145;SDS011;44928;53.074;6.646;2023-04-03T05:46:55;9.60;;;2.30;;
59145;SDS011;44928;53.074;6.646;2023-04-03T05:49:20;7.97;;;2.30;;
59145;SDS011;44928;53.074;6.646;2023-04-03T05:51:46;8.82;;;2.17;;
59145;SDS011;44928;53.074;6.646;2023-04-03T05:54:13;7.65;;;2.47;;
59145;SDS011;44928;53.074;6.646;2023-04-03T05:56:50;10.57;;;2.70;;
59145;SDS011;44928;53.074;6.646;2023-04-03T05:59:16;7.63;;;2.45;;
59145;SDS011;44928;53.074;6.646;2023-04-03T06:01:43;8.93;;;3.00;;
59145;SDS011;44928;53.074;6.646;2023-04-03T06:04:09;11.45;;;2.95;;
59145;SDS011;44928;53.074;6.646;2023-04-03T06:06:45;9.15;;;2.40;;
59145;SDS011;44928;53.074;6.646;2023-04-03T06:09:11;9.18;;;2.20;;
59145;SDS011;44928;53.074;6.646;2023-04-03T06:11:37;10.30;;;2.72;;
59145;SDS011;44928;53.074;6.646;2023-04-03T06:14:04;10.90;;;2.55;;
59145;SDS011;44928;53.074;6.646;2023-04-03T06:16:29;8.68;;;2.50;;
59145;SDS011;44928;53.074;6.646;2023-04-03T06:18:55;10.75;;;2.65;;
59145;SDS011;44928;53.074;6.646;2023-04-03T06:21:22;8.20;;;2.47;;
59145;SDS011;44928;53.074;6.646;2023-04-03T06:23:47;11.30;;;2.60;;
59145;SDS011;44928;53.074;6.646;2023-04-03T06:26:13;7.75;;;2.58;;
59145;SDS011;44928;53.074;6.646;2023-04-03T06:28:39;8.98;;;2.67;;
59145;SDS011;44928;53.074;6.646;2023-04-03T06:31:05;10.80;;;3.05;;
59145;SDS011;44928;53.074;6.646;2023-04-03T06:33:31;8.38;;;2.90;;
59145;SDS011;44928;53.074;6.646;2023-04-03T06:35:57;8.20;;;2.53;;
59145;SDS011;44928;53.074;6.646;2023-04-03T06:38:24;8.15;;;2.40;;
59145;SDS011;44928;53.074;6.646;2023-04-03T06:40:50;11.80;;;2.65;;
59145;SDS011;44928;53.074;6.646;2023-04-03T06:43:16;9.32;;;2.50;;
59145;SDS011;44928;53.074;6.646;2023-04-03T06:45:42;10.85;;;2.42;;
59145;SDS011;44928;53.074;6.646;2023-04-03T06:48:08;9.05;;;2.38;;
59145;SDS011;44928;53.074;6.646;2023-04-03T06:50:34;12.75;;;2.80;;
59145;SDS011;44928;53.074;6.646;2023-04-03T06:53:00;9.38;;;2.35;;
59145;SDS011;44928;53.074;6.646;2023-04-03T06:55:26;9.65;;;2.40;;
59145;SDS011;44928;53.074;6.646;2023-04-03T06:57:52;7.68;;;1.90;;
59145;SDS011;44928;53.074;6.646;2023-04-03T07:00:17;9.13;;;2.65;;
59145;SDS011;44928;53.074;6.646;2023-04-03T07:02:44;9.07;;;2.60;;
59145;SDS011;44928;53.074;6.646;2023-04-03T07:05:10;8.23;;;2.53;;
59145;SDS011;44928;53.074;6.646;2023-04-03T07:07:36;8.88;;;2.35;;
59145;SDS011;44928;53.074;6.646;2023-04-03T07:10:03;7.68;;;2.03;;
59145;SDS011;44928;53.074;6.646;2023-04-03T07:12:29;8.80;;;2.60;;
59145;SDS011;44928;53.074;6.646;2023-04-03T07:14:55;9.57;;;2.75;;
59145;SDS011;44928;53.074;6.646;2023-04-03T07:17:21;10.30;;;2.72;;
59145;SDS011;44928;53.074;6.646;2023-04-03T07:19:47;8.60;;;2.38;;
59145;SDS011;44928;53.074;6.646;2023-04-03T07:22:13;8.45;;;2.22;;
59145;SDS011;44928;53.074;6.646;2023-04-03T07:24:39;10.07;;;2.67;;
59145;SDS011;44928;53.074;6.646;2023-04-03T07:27:04;9.80;;;2.25;;
59145;SDS011;44928;53.074;6.646;2023-04-03T07:29:30;7.72;;;1.98;;
59145;SDS011;44928;53.074;6.646;2023-04-03T07:31:56;7.90;;;2.28;;
59145;SDS011;44928;53.074;6.646;2023-04-03T07:34:22;6.55;;;1.98;;
59145;SDS011;44928;53.074;6.646;2023-04-03T07:36:48;8.20;;;2.13;;
59145;SDS011;44928;53.074;6.646;2023-04-03T07:39:13;7.70;;;2.15;;
59145;SDS011;44928;53.074;6.646;2023-04-03T07:41:40;8.50;;;2.00;;
59145;SDS011;44928;53.074;6.646;2023-04-03T07:44:05;7.07;;;2.15;;
59145;SDS011;44928;53.074;6.646;2023-04-03T07:46:34;7.35;;;2.28;;
59145;SDS011;44928;53.074;6.646;2023-04-03T07:49:00;8.75;;;2.00;;
59145;SDS011;44928;53.074;6.646;2023-04-03T07:51:26;10.38;;;2.38;;
59145;SDS011;44928;53.074;6.646;2023-04-03T07:53:53;9.57;;;2.03;;
59145;SDS011;44928;53.074;6.646;2023-04-03T07:56:19;8.77;;;2.00;;
59145;SDS011;44928;53.074;6.646;2023-04-03T07:58:45;8.57;;;2.10;;
59145;SDS011;44928;53.074;6.646;2023-04-03T08:01:11;7.95;;;2.05;;
59145;SDS011;44928;53.074;6.646;2023-04-03T08:03:38;6.40;;;1.90;;
59145;SDS011;44928;53.074;6.646;2023-04-03T08:06:05;7.50;;;2.00;;
59145;SDS011;44928;53.074;6.646;2023-04-03T08:08:32;8.30;;;1.80;;
59145;SDS011;44928;53.074;6.646;2023-04-03T08:10:59;6.82;;;1.90;;
59145;SDS011;44928;53.074;6.646;2023-04-03T08:13:27;8.57;;;1.92;;
59145;SDS011;44928;53.074;6.646;2023-04-03T08:15:54;5.10;;;1.50;;
59145;SDS011;44928;53.074;6.646;2023-04-03T08:18:22;10.25;;;2.20;;
59145;SDS011;44928;53.074;6.646;2023-04-03T08:20:50;8.07;;;1.83;;
59145;SDS011;44928;53.074;6.646;2023-04-03T08:23:17;9.90;;;2.40;;
59145;SDS011;44928;53.074;6.646;2023-04-03T08:25:44;7.82;;;2.03;;
59145;SDS011;44928;53.074;6.646;2023-04-03T08:28:10;7.28;;;2.03;;
59145;SDS011;44928;53.074;6.646;2023-04-03T08:30:40;9.38;;;1.92;;
59145;SDS011;44928;53.074;6.646;2023-04-03T08:33:07;5.80;;;1.48;;
59145;SDS011;44928;53.074;6.646;2023-04-03T08:35:37;5.82;;;2.05;;
59145;SDS011;44928;53.074;6.646;2023-04-03T08:38:04;6.72;;;1.52;;
59145;SDS011;44928;53.074;6.646;2023-04-03T08:40:30;6.55;;;1.80;;
59145;SDS011;44928;53.074;6.646;2023-04-03T08:50:58;5.65;;;1.55;;
59145;SDS011;44928;53.074;6.646;2023-04-03T08:53:28;6.78;;;1.75;;
59145;SDS011;44928;53.074;6.646;2023-04-03T08:55:57;7.85;;;1.60;;
59145;SDS011;44928;53.074;6.646;2023-04-03T08:58:26;5.72;;;1.40;;
59145;SDS011;44928;53.074;6.646;2023-04-03T09:01:05;7.13;;;1.73;;
59145;SDS011;44928;53.074;6.646;2023-04-03T09:03:41;7.40;;;1.98;;
59145;SDS011;44928;53.074;6.646;2023-04-03T09:06:14;10.43;;;2.15;;
59145;SDS011;44928;53.074;6.646;2023-04-03T09:11:40;6.32;;;1.55;;
59145;SDS011;44928;53.074;6.646;2023-04-03T09:14:14;7.13;;;1.60;;
59145;SDS011;44928;53.074;6.646;2023-04-03T09:19:23;7.90;;;1.55;;
59145;SDS011;44928;53.074;6.646;2023-04-03T09:21:51;4.15;;;1.17;;
59145;SDS011;44928;53.074;6.646;2023-04-03T09:24:17;6.22;;;1.20;;
59145;SDS011;44928;53.074;6.646;2023-04-03T09:26:55;5.90;;;1.42;;
59145;SDS011;44928;53.074;6.646;2023-04-03T09:29:25;7.70;;;1.55;;
59145;SDS011;44928;53.074;6.646;2023-04-03T09:32:18;6.20;;;1.25;;
59145;SDS011;44928;53.074;6.646;2023-04-03T09:34:46;6.03;;;1.02;;
59145;SDS011;44928;53.074;6.646;2023-04-03T09:37:32;4.00;;;1.02;;
59145;SDS011;44928;53.074;6.646;2023-04-03T09:40:04;3.28;;;1.00;;
59145;SDS011;44928;53.074;6.646;2023-04-03T09:42:31;4.13;;;1.08;;
59145;SDS011;44928;53.074;6.646;2023-04-03T09:44:58;7.03;;;1.38;;
59145;SDS011;44928;53.074;6.646;2023-04-03T09:47:32;5.43;;;1.08;;
59145;SDS011;44928;53.074;6.646;2023-04-03T09:52:38;4.32;;;0.90;;
59145;SDS011;44928;53.074;6.646;2023-04-03T09:55:06;3.45;;;1.05;;
59145;SDS011;44928;53.074;6.646;2023-04-03T09:57:39;2.67;;;0.80;;
59145;SDS011;44928;53.074;6.646;2023-04-03T10:00:05;3.22;;;0.90;;
59145;SDS011;44928;53.074;6.646;2023-04-03T10:02:44;5.78;;;1.27;;
59145;SDS011;44928;53.074;6.646;2023-04-03T10:10:44;5.00;;;1.20;;
59145;SDS011;44928;53.074;6.646;2023-04-03T10:13:29;3.97;;;0.95;;
59145;SDS011;44928;53.074;6.646;2023-04-03T10:16:07;5.80;;;1.20;;
59145;SDS011;44928;53.074;6.646;2023-04-03T10:18:51;3.80;;;1.33;;
59145;SDS011;44928;53.074;6.646;2023-04-03T10:26:58;3.10;;;0.85;;
59145;SDS011;44928;53.074;6.646;2023-04-03T10:29:55;3.53;;;0.80;;
59145;SDS011;44928;53.074;6.646;2023-04-03T10:40:23;4.32;;;0.98;;
59145;SDS011;44928;53.074;6.646;2023-04-03T10:46:16;5.70;;;1.00;;
59145;SDS011;44928;53.074;6.646;2023-04-03T10:57:09;4.72;;;0.98;;
59145;SDS011;44928;53.074;6.646;2023-04-03T11:04:59;3.72;;;1.00;;
59145;SDS011;44928;53.074;6.646;2023-04-03T11:07:29;3.00;;;1.00;;
59145;SDS011;44928;53.074;6.646;2023-04-03T11:10:05;3.83;;;1.40;;
59145;SDS011;44928;53.074;6.646;2023-04-03T11:12:43;3.88;;;1.13;;
59145;SDS011;44928;53.074;6.646;2023-04-03T11:15:27;4.90;;;1.10;;
59145;SDS011;44928;53.074;6.646;2023-04-03T11:18:01;7.88;;;1.23;;
59145;SDS011;44928;53.074;6.646;2023-04-03T11:20:31;4.88;;;0.93;;
59145;SDS011;44928;53.074;6.646;2023-04-03T11:25:46;3.65;;;0.75;;
59145;SDS011;44928;53.074;6.646;2023-04-03T11:28:17;3.67;;;1.00;;
59145;SDS011;44928;53.074;6.646;2023-04-03T11:35:55;4.47;;;0.80;;
59145;SDS011;44928;53.074;6.646;2023-04-03T11:38:27;3.38;;;0.77;;
59145;SDS011;44928;53.074;6.646;2023-04-03T11:40:59;4.22;;;0.95;;
59145;SDS011;44928;53.074;6.646;2023-04-03T11:43:27;4.72;;;1.33;;
59145;SDS011;44928;53.074;6.646;2023-04-03T11:45:56;1.90;;;0.70;;
59145;SDS011;44928;53.074;6.646;2023-04-03T11:51:00;3.20;;;0.90;;
59145;SDS011;44928;53.074;6.646;2023-04-03T11:53:41;3.15;;;0.95;;
59145;SDS011;44928;53.074;6.646;2023-04-03T11:56:28;4.65;;;0.88;;
59145;SDS011;44928;53.074;6.646;2023-04-03T12:01:50;3.83;;;1.00;;
59145;SDS011;44928;53.074;6.646;2023-04-03T12:04:19;7.13;;;2.28;;
59145;SDS011;44928;53.074;6.646;2023-04-03T12:09:24;4.88;;;1.30;;
59145;SDS011;44928;53.074;6.646;2023-04-03T12:12:30;5.55;;;1.10;;
59145;SDS011;44928;53.074;6.646;2023-04-03T12:17:48;5.38;;;1.17;;
59145;SDS011;44928;53.074;6.646;2023-04-03T12:23:35;4.40;;;1.13;;
59145;SDS011;44928;53.074;6.646;2023-04-03T12:26:21;5.13;;;0.80;;
59145;SDS011;44928;53.074;6.646;2023-04-03T12:28:51;3.97;;;0.90;;
59145;SDS011;44928;53.074;6.646;2023-04-03T12:31:20;4.25;;;1.02;;
59145;SDS011;44928;53.074;6.646;2023-04-03T12:34:07;4.00;;;1.00;;
59145;SDS011;44928;53.074;6.646;2023-04-03T12:36:39;5.55;;;1.05;;
59145;SDS011;44928;53.074;6.646;2023-04-03T12:39:15;4.68;;;1.08;;
59145;SDS011;44928;53.074;6.646;2023-04-03T12:44:52;4.20;;;1.15;;
59145;SDS011;44928;53.074;6.646;2023-04-03T12:47:21;6.32;;;1.25;;
59145;SDS011;44928;53.074;6.646;2023-04-03T12:49:50;4.45;;;1.15;;
59145;SDS011;44928;53.074;6.646;2023-04-03T12:54:55;4.97;;;1.25;;
59145;SDS011;44928;53.074;6.646;2023-04-03T12:57:26;7.68;;;1.35;;
59145;SDS011;44928;53.074;6.646;2023-04-03T12:59:52;5.10;;;1.15;;
59145;SDS011;44928;53.074;6.646;2023-04-03T13:02:28;7.13;;;1.40;;
59145;SDS011;44928;53.074;6.646;2023-04-03T13:04:57;3.92;;;1.02;;
59145;SDS011;44928;53.074;6.646;2023-04-03T13:12:33;4.10;;;1.15;;
59145;SDS011;44928;53.074;6.646;2023-04-03T13:15:01;6.63;;;1.10;;
59145;SDS011;44928;53.074;6.646;2023-04-03T13:17:41;3.08;;;0.98;;
59145;SDS011;44928;53.074;6.646;2023-04-03T13:20:16;4.68;;;1.20;;
59145;SDS011;44928;53.074;6.646;2023-04-03T13:25:32;3.75;;;1.10;;
59145;SDS011;44928;53.074;6.646;2023-04-03T13:28:00;3.83;;;1.00;;
59145;SDS011;44928;53.074;6.646;2023-04-03T13:30:33;4.05;;;1.35;;
59145;SDS011;44928;53.074;6.646;2023-04-03T13:33:05;4.88;;;1.00;;
59145;SDS011;44928;53.074;6.646;2023-04-03T13:35:44;5.25;;;1.20;;
59145;SDS011;44928;53.074;6.646;2023-04-03T13:40:49;3.38;;;0.93;;
59145;SDS011;44928;53.074;6.646;2023-04-03T13:43:30;4.35;;;0.90;;
59145;SDS011;44928;53.074;6.646;2023-04-03T13:48:47;5.43;;;1.48;;
59145;SDS011;44928;53.074;6.646;2023-04-03T13:51:27;3.63;;;1.00;;
59145;SDS011;44928;53.074;6.646;2023-04-03T13:53:56;6.07;;;1.20;;
59145;SDS011;44928;53.074;6.646;2023-04-03T13:56:31;3.33;;;1.10;;
59145;SDS011;44928;53.074;6.646;2023-04-03T14:01:47;3.17;;;0.90;;
59145;SDS011;44928;53.074;6.646;2023-04-03T14:04:20;3.47;;;0.95;;
59145;SDS011;44928;53.074;6.646;2023-04-03T14:06:49;4.22;;;1.05;;
59145;SDS011;44928;53.074;6.646;2023-04-03T14:09:16;5.07;;;1.10;;
59145;SDS011;44928;53.074;6.646;2023-04-03T14:11:43;3.78;;;1.08;;
59145;SDS011;44928;53.074;6.646;2023-04-03T14:14:14;4.65;;;1.15;;
59145;SDS011;44928;53.074;6.646;2023-04-03T14:16:43;4.93;;;1.10;;
59145;SDS011;44928;53.074;6.646;2023-04-03T14:19:25;4.95;;;1.10;;
59145;SDS011;44928;53.074;6.646;2023-04-03T14:21:54;4.88;;;1.00;;
59145;SDS011;44928;53.074;6.646;2023-04-03T14:24:21;4.07;;;0.95;;
59145;SDS011;44928;53.074;6.646;2023-04-03T14:26:47;5.45;;;1.10;;
59145;SDS011;44928;53.074;6.646;2023-04-03T14:29:17;4.60;;;1.35;;
59145;SDS011;44928;53.074;6.646;2023-04-03T14:31:44;3.95;;;1.08;;
59145;SDS011;44928;53.074;6.646;2023-04-03T14:34:11;4.65;;;1.10;;
59145;SDS011;44928;53.074;6.646;2023-04-03T14:36:38;4.30;;;1.10;;
59145;SDS011;44928;53.074;6.646;2023-04-03T14:39:06;3.90;;;0.98;;
59145;SDS011;44928;53.074;6.646;2023-04-03T14:41:34;3.42;;;1.00;;
59145;SDS011;44928;53.074;6.646;2023-04-03T14:44:00;5.38;;;1.23;;
59145;SDS011;44928;53.074;6.646;2023-04-03T14:46:32;4.78;;;0.90;;
59145;SDS011;44928;53.074;6.646;2023-04-03T14:49:01;2.50;;;0.80;;
59145;SDS011;44928;53.074;6.646;2023-04-03T14:53:58;4.15;;;1.00;;
59145;SDS011;44928;53.074;6.646;2023-04-03T14:56:25;3.45;;;0.85;;
59145;SDS011;44928;53.074;6.646;2023-04-03T14:58:57;5.03;;;1.20;;
59145;SDS011;44928;53.074;6.646;2023-04-03T15:01:24;2.70;;;0.80;;
59145;SDS011;44928;53.074;6.646;2023-04-03T15:03:51;3.10;;;0.90;;
59145;SDS011;44928;53.074;6.646;2023-04-03T15:06:17;5.50;;;1.05;;
59145;SDS011;44928;53.074;6.646;2023-04-03T15:08:44;2.88;;;0.80;;
59145;SDS011;44928;53.074;6.646;2023-04-03T15:11:12;3.17;;;0.82;;
59145;SDS011;44928;53.074;6.646;2023-04-03T15:13:39;4.05;;;0.90;;
59145;SDS011;44928;53.074;6.646;2023-04-03T15:16:05;3.78;;;0.93;;
59145;SDS011;44928;53.074;6.646;2023-04-03T15:18:39;2.47;;;0.77;;
59145;SDS011;44928;53.074;6.646;2023-04-03T15:21:05;3.70;;;0.98;;
59145;SDS011;44928;53.074;6.646;2023-04-03T15:23:31;3.88;;;1.08;;
59145;SDS011;44928;53.074;6.646;2023-04-03T15:25:57;4.05;;;0.88;;
59145;SDS011;44928;53.074;6.646;2023-04-03T15:28:34;4.40;;;1.15;;
59145;SDS011;44928;53.074;6.646;2023-04-03T15:31:03;4.28;;;1.00;;
59145;SDS011;44928;53.074;6.646;2023-04-03T15:33:30;3.50;;;1.00;;
59145;SDS011;44928;53.074;6.646;2023-04-03T15:35:57;5.13;;;1.23;;
59145;SDS011;44928;53.074;6.646;2023-04-03T15:38:22;3.65;;;0.90;;
59145;SDS011;44928;53.074;6.646;2023-04-03T15:40:48;3.47;;;1.13;;
59145;SDS011;44928;53.074;6.646;2023-04-03T15:43:14;6.10;;;1.50;;
59145;SDS011;44928;53.074;6.646;2023-04-03T15:45:41;3.50;;;1.15;;
59145;SDS011;44928;53.074;6.646;2023-04-03T15:48:08;5.88;;;1.30;;
59145;SDS011;44928;53.074;6.646;2023-04-03T15:50:35;5.40;;;1.35;;
59145;SDS011;44928;53.074;6.646;2023-04-03T15:53:01;5.63;;;1.15;;
59145;SDS011;44928;53.074;6.646;2023-04-03T15:55:28;5.80;;;1.48;;
59145;SDS011;44928;53.074;6.646;2023-04-03T15:57:56;4.28;;;1.00;;
59145;SDS011;44928;53.074;6.646;2023-04-03T16:00:23;5.15;;;1.23;;
59145;SDS011;44928;53.074;6.646;2023-04-03T16:02:50;4.60;;;1.30;;
59145;SDS011;44928;53.074;6.646;2023-04-03T16:05:19;3.00;;;0.90;;
59145;SDS011;44928;53.074;6.646;2023-04-03T16:07:45;4.68;;;0.95;;
59145;SDS011;44928;53.074;6.646;2023-04-03T16:10:12;5.90;;;1.10;;
59145;SDS011;44928;53.074;6.646;2023-04-03T16:12:39;4.78;;;1.02;;
59145;SDS011;44928;53.074;6.646;2023-04-03T16:15:05;6.10;;;1.20;;
59145;SDS011;44928;53.074;6.646;2023-04-03T16:17:32;4.90;;;0.90;;
59145;SDS011;44928;53.074;6.646;2023-04-03T16:19:59;5.22;;;0.90;;
59145;SDS011;44928;53.074;6.646;2023-04-03T16:22:26;5.00;;;0.85;;
59145;SDS011;44928;53.074;6.646;2023-04-03T16:24:53;4.50;;;1.25;;
59145;SDS011;44928;53.074;6.646;2023-04-03T16:27:20;4.25;;;0.98;;
59145;SDS011;44928;53.074;6.646;2023-04-03T16:29:46;3.60;;;0.85;;
59145;SDS011;44928;53.074;6.646;2023-04-03T16:32:12;3.90;;;1.02;;
59145;SDS011;44928;53.074;6.646;2023-04-03T16:34:39;1.73;;;0.65;;
59145;SDS011;44928;53.074;6.646;2023-04-03T16:37:05;3.78;;;0.95;;
59145;SDS011;44928;53.074;6.646;2023-04-03T16:39:33;2.42;;;0.90;;
59145;SDS011;44928;53.074;6.646;2023-04-03T16:42:00;4.95;;;1.00;;
59145;SDS011;44928;53.074;6.646;2023-04-03T16:44:26;4.88;;;0.90;;
59145;SDS011;44928;53.074;6.646;2023-04-03T16:46:52;2.78;;;0.80;;